Time;durP1;ratioP1;P1;durP2;ratioP2;P2;SDS_P1;SDS_P2;PMS_P1;PMS_P2;Temp;Humidity;BMP_temperature;BMP_pressure;BME280_temperature;BME280_humidity;BME280_pressure;Samples;Min_cycle;Max_cycle;Signal;HPM_P1;HPM_P2
2023/09/19 00:00:01;;;;;;;4.45;1.23;;;;;;;-146.27;50.80;81871.97;5035665;28;20036;-69
2023/09/19 00:02:26;;;;;;;8.15;1.25;;;;;;;-146.27;50.80;81829.78;5034831;28;20025;-69
2023/09/19 00:04:53;;;;;;;9.93;1.88;;;;;;;-146.27;49.91;81855.91;5032659;28;20482;-69
2023/09/19 00:07:19;;;;;;;6.72;1.35;;;;;;;-146.27;50.22;81916.16;5032957;28;20020;-68
2023/09/19 00:09:44;;;;;;;7.72;1.23;;;;;;;-146.27;50.36;81765.53;5039132;28;20025;-69
2023/09/19 00:12:09;;;;;;;13.90;1.80;;;;;;;-146.27;49.81;81755.47;5038061;28;20028;-69
2023/09/19 00:14:38;;;;;;;8.15;1.58;;;;;;;-146.27;50.39;81809.72;5045823;28;20058;-69
2023/09/19 00:17:08;;;;;;;11.10;1.50;;;;;;;-146.27;50.42;81833.81;5044535;28;20103;-70
2023/09/19 00:19:34;;;;;;;8.20;1.40;;;;;;;-146.27;50.22;81837.81;5031572;28;20492;-69
2023/09/19 00:22:00;;;;;;;9.95;1.40;;;;;;;-146.27;50.47;81878.00;5035738;28;20094;-69
2023/09/19 00:24:28;;;;;;;7.90;1.45;;;;;;;-146.27;51.13;81781.59;5047383;28;20406;-69
2023/09/19 00:26:55;;;;;;;8.32;1.60;;;;;;;-146.27;51.51;81878.00;5048632;28;20025;-68
2023/09/19 00:29:21;;;;;;;7.53;1.70;;;;;;;-146.27;50.73;81865.94;5036148;28;20025;-68
2023/09/19 00:31:46;;;;;;;5.85;1.30;;;;;;;-146.27;51.12;81845.88;5033579;28;20397;-68
2023/09/19 00:34:11;;;;;;;6.47;1.30;;;;;;;-146.27;51.68;81833.81;5037436;28;20025;-68
2023/09/19 00:36:40;;;;;;;7.68;1.20;;;;;;;-146.27;51.84;81809.72;5037761;28;20115;-69
2023/09/19 00:39:08;;;;;;;8.00;1.40;;;;;;;-146.27;52.01;81801.69;5039071;28;20029;-69
2023/09/19 00:41:35;;;;;;;14.35;1.48;;;;;;;-146.27;52.60;81801.69;5042808;28;20021;-69
2023/09/19 00:44:01;;;;;;;8.68;1.45;;;;;;;-146.27;52.84;81849.88;5042148;28;20033;-70
2023/09/19 00:46:27;;;;;;;6.20;1.30;;;;;;;-146.27;53.94;81871.97;5040286;28;20058;-69
2023/09/19 00:48:53;;;;;;;6.15;1.20;;;;;;;-146.27;53.46;81829.78;5035417;28;20021;-69
2023/09/19 00:51:22;;;;;;;5.70;1.52;;;;;;;-146.27;54.16;81813.72;5032691;28;20044;-69
2023/09/19 00:53:47;;;;;;;6.75;2.17;;;;;;;-146.27;55.34;81829.78;5039552;28;20031;-69
2023/09/19 00:56:14;;;;;;;5.53;1.40;;;;;;;-146.27;54.52;81849.88;5037046;28;20021;-69
2023/09/19 00:58:40;;;;;;;13.50;1.65;;;;;;;-146.27;54.66;81785.59;5040407;28;20029;-68
2023/09/19 01:01:06;;;;;;;10.48;1.55;;;;;;;-146.27;54.95;81825.78;5045349;28;20379;-68
2023/09/19 01:03:36;;;;;;;9.15;1.17;;;;;;;-146.27;56.17;81849.88;5044737;28;20025;-69
2023/09/19 01:06:02;;;;;;;9.88;1.90;;;;;;;-146.27;55.91;81801.69;5040591;28;20036;-69
2023/09/19 01:08:29;;;;;;;12.38;1.77;;;;;;;-146.27;56.20;81865.94;5047928;28;20036;-69
2023/09/19 01:11:32;;;;;;;7.28;1.40;;;;;;;-146.27;55.93;81823.78;5039742;28;20028;-68
2023/09/19 01:14:25;;;;;;;8.07;1.85;;;;;;;-146.27;56.10;81900.09;5041044;28;20045;-68
2023/09/19 01:17:06;;;;;;;12.68;1.80;;;;;;;-146.27;56.49;81878.00;5043101;28;20037;-71
2023/09/19 01:19:59;;;;;;;11.45;1.80;;;;;;;-146.27;56.66;81801.69;5032892;28;20029;-69
2023/09/19 01:22:47;;;;;;;11.93;2.20;;;;;;;-146.27;57.04;81918.16;5035198;28;20112;-68
2023/09/19 01:25:51;;;;;;;10.10;1.92;;;;;;;-146.27;57.27;81890.06;5040899;28;20559;-69
2023/09/19 01:28:22;;;;;;;;;;;;;;;-146.27;57.41;81847.88;5036499;28;20029;-69
2023/09/19 01:30:57;;;;;;;9.68;1.48;;;;;;;-146.27;56.88;81894.06;5035076;28;20376;-68
2023/09/19 01:33:23;;;;;;;12.00;1.98;;;;;;;-146.27;58.00;81867.97;5035844;28;20603;-69
2023/09/19 01:35:49;;;;;;;9.35;2.35;;;;;;;-146.27;57.01;81859.94;5032049;28;20025;-69
2023/09/19 01:38:14;;;;;;;11.40;1.70;;;;;;;-146.27;57.16;81863.94;5038678;28;20077;-69
2023/09/19 01:40:51;;;;;;;11.65;2.35;;;;;;;-146.27;57.66;81878.00;5047711;28;20140;-68
2023/09/19 01:43:30;;;;;;;7.88;1.67;;;;;;;-146.27;57.93;81809.72;5032581;28;20025;-68
2023/09/19 01:46:07;;;;;;;16.15;3.00;;;;;;;-146.27;57.97;81823.78;5036187;28;20028;-68
2023/09/19 01:48:46;;;;;;;15.07;2.10;;;;;;;-146.27;59.73;81878.00;5039453;28;20029;-69
2023/09/19 01:51:16;;;;;;;8.30;1.38;;;;;;;-146.27;59.37;81904.13;5040183;28;20025;-70
2023/09/19 01:54:06;;;;;;;13.93;2.88;;;;;;;-146.27;60.00;81857.91;5039213;28;20021;-68
2023/09/19 01:56:42;;;;;;;15.27;2.15;;;;;;;-146.27;60.40;81922.19;5036976;28;20041;-69
2023/09/19 01:59:13;;;;;;;5.47;1.88;;;;;;;-146.27;60.82;81946.28;5041492;28;20029;-68
2023/09/19 02:01:40;;;;;;;15.32;2.20;;;;;;;-146.27;60.61;81916.16;5043400;28;20031;-69
2023/09/19 02:04:05;;;;;;;9.25;1.50;;;;;;;-146.27;60.28;81970.41;5034870;28;20018;-68
2023/09/19 02:06:32;;;;;;;10.20;1.63;;;;;;;-146.27;60.79;81992.50;5038814;28;20053;-69
2023/09/19 02:08:57;;;;;;;7.70;2.42;;;;;;;-146.27;60.45;81952.31;5033478;28;20033;-68
2023/09/19 02:11:23;;;;;;;7.57;1.20;;;;;;;-146.27;59.91;81896.06;5046733;28;20021;-69
2023/09/19 02:13:54;;;;;;;17.70;1.70;;;;;;;-146.27;60.45;81968.38;5034126;28;20051;-68
2023/09/19 02:16:20;;;;;;;14.20;2.55;;;;;;;-146.27;60.00;81978.44;5037315;28;20033;-69
2023/09/19 02:18:47;;;;;;;11.05;2.28;;;;;;;-146.27;59.72;81908.13;5036102;28;20037;-70
2023/09/19 02:21:13;;;;;;;8.10;1.50;;;;;;;-146.27;60.42;81932.22;5040959;28;20362;-68
2023/09/19 02:23:39;;;;;;;14.55;1.55;;;;;;;-146.27;60.41;81986.47;5042620;28;20033;-69
2023/09/19 02:26:05;;;;;;;5.43;1.75;;;;;;;-146.27;59.94;81954.31;5045155;28;20075;-69
2023/09/19 02:28:31;;;;;;;7.80;1.75;;;;;;;-146.27;59.33;81902.09;5045060;28;20037;-69
2023/09/19 02:30:57;;;;;;;9.27;1.67;;;;;;;-146.27;59.53;81878.00;5036268;28;20049;-69
2023/09/19 02:33:23;;;;;;;13.82;1.52;;;;;;;-146.27;59.11;81884.03;5035005;28;20527;-69
2023/09/19 02:35:48;;;;;;;11.73;2.05;;;;;;;-146.27;59.51;81888.03;5043249;28;20025;-69
2023/09/19 02:38:18;;;;;;;9.00;1.77;;;;;;;-146.27;59.25;81890.06;5034653;28;20063;-69
2023/09/19 02:40:43;;;;;;;6.47;1.38;;;;;;;-146.27;59.89;81896.06;5051239;28;20028;-68
2023/09/19 02:43:09;;;;;;;9.68;1.55;;;;;;;-146.27;60.56;81896.06;5047086;28;20033;-69
2023/09/19 02:45:34;;;;;;;7.18;1.58;;;;;;;-146.27;60.27;81882.00;5043412;28;20032;-69
2023/09/19 02:48:00;;;;;;;7.60;1.27;;;;;;;-146.27;60.16;81906.13;5039507;28;20025;-70
2023/09/19 02:50:25;;;;;;;13.98;1.90;;;;;;;-146.27;60.41;81912.16;5033407;28;20029;-69
2023/09/19 02:52:51;;;;;;;12.15;1.60;;;;;;;-146.27;60.83;81970.41;5037526;28;20440;-69
2023/09/19 02:55:19;;;;;;;9.93;1.45;;;;;;;-146.27;60.87;81960.34;5042707;28;20031;-69
2023/09/19 02:57:54;;;;;;;7.63;1.60;;;;;;;-146.27;60.57;81962.34;5048364;28;20028;-69
2023/09/19 03:00:21;;;;;;;10.82;2.65;;;;;;;-146.27;61.66;81849.88;5045463;28;20366;-68
2023/09/19 03:02:53;;;;;;;9.02;1.63;;;;;;;-146.27;60.68;81918.16;5051095;28;20104;-70
2023/09/19 03:05:20;;;;;;;10.38;1.45;;;;;;;-146.27;60.55;81918.16;5046335;28;20585;-68
2023/09/19 03:07:50;;;;;;;9.27;1.58;;;;;;;-146.27;60.84;81982.44;5043375;28;20014;-69
2023/09/19 03:10:16;;;;;;;13.40;2.30;;;;;;;-146.27;61.05;81976.41;5037124;28;20048;-70
2023/09/19 03:12:42;;;;;;;8.25;1.60;;;;;;;-146.27;60.51;81948.31;5037458;28;20074;-69
2023/09/19 03:15:08;;;;;;;8.52;1.70;;;;;;;-146.27;60.37;81922.19;5040325;28;20460;-70
2023/09/19 03:17:34;;;;;;;14.40;2.08;;;;;;;-146.27;60.81;81950.31;5047100;28;20064;-68
2023/09/19 03:19:59;;;;;;;6.07;1.30;;;;;;;-146.27;60.53;81904.13;5036678;28;20108;-68
2023/09/19 03:22:26;;;;;;;5.88;1.52;;;;;;;-146.27;60.48;81845.88;5035652;28;20036;-67
2023/09/19 03:24:52;;;;;;;16.10;3.08;;;;;;;-146.27;60.62;81867.97;5044250;28;20419;-68
2023/09/19 03:27:18;;;;;;;6.55;1.60;;;;;;;-146.27;61.73;81938.25;5049817;28;20025;-68
2023/09/19 03:29:43;;;;;;;4.75;1.40;;;;;;;-146.27;61.02;81851.88;5038905;28;20036;-69
2023/09/19 03:32:12;;;;;;;11.20;1.75;;;;;;;-146.27;61.79;81878.00;5040699;28;20035;-68
2023/09/19 03:34:42;;;;;;;10.57;1.58;;;;;;;-146.27;61.60;81859.94;5041702;28;20043;-68
2023/09/19 03:37:08;;;;;;;7.93;1.83;;;;;;;-146.27;61.14;81900.09;5043388;28;20067;-69
2023/09/19 03:39:33;;;;;;;8.18;2.00;;;;;;;-146.27;60.98;81845.88;5044756;28;20056;-69
2023/09/19 03:41:59;;;;;;;6.15;1.20;;;;;;;-146.27;60.75;81833.81;5035475;28;20017;-67
2023/09/19 03:44:24;;;;;;;5.85;1.23;;;;;;;-146.27;61.44;81884.03;5045679;28;20036;-68
2023/09/19 03:46:49;;;;;;;6.03;1.40;;;;;;;-146.27;60.76;81793.66;5049065;28;20024;-69
2023/09/19 03:49:15;;;;;;;11.55;1.60;;;;;;;-146.27;60.56;81789.63;5039457;28;20024;-69
2023/09/19 03:51:41;;;;;;;7.15;1.08;;;;;;;-146.27;61.35;81926.22;5038006;28;20524;-68
2023/09/19 03:54:07;;;;;;;13.35;2.03;;;;;;;-146.27;62.04;81910.13;5039594;28;20584;-69
2023/09/19 03:56:33;;;;;;;7.90;1.80;;;;;;;-146.27;61.06;81886.03;5037862;28;20033;-69
2023/09/19 03:58:58;;;;;;;9.35;1.42;;;;;;;-146.27;60.72;81886.03;5030758;28;20037;-70
2023/09/19 04:01:24;;;;;;;6.82;1.13;;;;;;;-146.27;61.20;81865.94;5040582;28;20428;-69
2023/09/19 04:03:51;;;;;;;9.95;1.45;;;;;;;-146.27;60.95;81797.66;5045708;28;20127;-70
2023/09/19 04:06:17;;;;;;;6.13;1.38;;;;;;;-146.27;60.94;81867.97;5035537;28;20037;-69
2023/09/19 04:08:44;;;;;;;8.73;1.63;;;;;;;-146.27;60.81;81855.91;5046708;28;20028;-70
2023/09/19 04:11:10;;;;;;;7.88;1.77;;;;;;;-146.27;61.32;81940.25;5044190;28;20695;-69
2023/09/19 04:13:36;;;;;;;7.22;1.42;;;;;;;-146.27;60.80;81910.13;5042741;28;20625;-69
2023/09/19 04:16:03;;;;;;;6.70;1.40;;;;;;;-146.27;61.26;81998.50;5038319;28;20068;-69
2023/09/19 04:18:31;;;;;;;6.32;1.15;;;;;;;-146.27;59.65;81867.97;5034878;28;20026;-69
2023/09/19 04:20:57;;;;;;;13.02;1.38;;;;;;;-146.27;59.62;81936.25;5035585;28;20091;-69
2023/09/19 04:23:22;;;;;;;10.02;1.17;;;;;;;-146.27;58.50;81869.97;5050673;28;20028;-70
2023/09/19 04:25:48;;;;;;;7.32;1.15;;;;;;;-146.27;58.16;81825.78;5043797;28;20052;-70
2023/09/19 04:28:13;;;;;;;9.60;1.65;;;;;;;-146.27;58.30;81882.00;5039636;28;20025;-69
2023/09/19 04:30:42;;;;;;;3.05;0.77;;;;;;;-146.27;57.90;81882.00;5035388;28;20041;-69
2023/09/19 04:33:07;;;;;;;4.60;0.93;;;;;;;-146.27;59.53;82026.63;5044438;28;20025;-69
2023/09/19 04:35:33;;;;;;;7.75;1.70;;;;;;;-146.27;58.17;81942.28;5042227;28;20105;-70
2023/09/19 04:37:59;;;;;;;6.75;1.30;;;;;;;-146.27;58.02;81902.09;5036463;28;20473;-69
2023/09/19 04:40:26;;;;;;;7.97;1.55;;;;;;;-146.27;57.61;81900.09;5034378;28;20835;-69
2023/09/19 04:42:57;;;;;;;8.27;1.95;;;;;;;-146.27;57.73;81966.38;5038893;28;20029;-69
2023/09/19 04:45:23;;;;;;;7.30;1.33;;;;;;;-146.27;57.42;81930.22;5041360;28;20112;-69
2023/09/19 04:47:49;;;;;;;5.22;1.25;;;;;;;-146.27;56.81;81958.34;5048477;28;20435;-68
2023/09/19 04:50:14;;;;;;;8.25;1.42;;;;;;;-146.27;56.01;81869.97;5037515;28;20025;-69
2023/09/19 04:52:44;;;;;;;7.82;1.30;;;;;;;-146.27;56.25;81898.09;5041574;28;20033;-69
2023/09/19 04:55:17;;;;;;;5.82;1.42;;;;;;;-146.27;56.58;81898.09;5041509;28;20128;-69
2023/09/19 04:57:52;;;;;;;10.90;1.38;;;;;;;-146.27;56.35;81944.28;5038026;28;20025;-69
2023/09/19 05:00:23;;;;;;;15.48;1.58;;;;;;;-146.27;56.80;81932.22;5039134;28;20091;-69
2023/09/19 05:02:55;;;;;;;8.88;1.42;;;;;;;-146.27;57.27;81922.19;5041514;28;20029;-68
2023/09/19 05:05:20;;;;;;;10.85;1.60;;;;;;;-146.27;57.81;82002.53;5042053;28;20029;-69
2023/09/19 05:07:46;;;;;;;5.40;1.48;;;;;;;-146.27;57.55;81896.06;5039883;28;20028;-69
2023/09/19 05:10:12;;;;;;;14.35;1.73;;;;;;;-146.27;57.61;81878.00;5041011;28;20034;-69
2023/09/19 05:12:38;;;;;;;9.68;1.20;;;;;;;-146.27;57.69;81873.97;5043707;28;20694;-69
2023/09/19 05:15:07;;;;;;;13.80;1.30;;;;;;;-146.27;58.46;81910.13;5039321;28;20525;-69
2023/09/19 05:17:34;;;;;;;8.00;1.50;;;;;;;-146.27;58.09;81882.00;5036386;28;20036;-69
2023/09/19 05:20:09;;;;;;;7.82;2.22;;;;;;;-146.27;58.80;81948.31;5036250;28;20546;-68
2023/09/19 05:22:39;;;;;;;10.05;1.52;;;;;;;-146.27;58.62;81865.94;5041582;28;20028;-68
2023/09/19 05:25:05;;;;;;;15.73;2.78;;;;;;;-146.27;59.63;81886.03;5034386;28;20458;-75
2023/09/19 05:27:31;;;;;;;16.20;1.88;;;;;;;-146.27;59.81;81882.00;5036408;28;20059;-67
2023/09/19 05:29:56;;;;;;;10.38;1.52;;;;;;;-146.27;64.11;81954.31;5040878;28;20548;-68
2023/09/19 05:32:22;;;;;;;8.27;1.50;;;;;;;-146.27;66.31;82010.56;5048067;28;20679;-68
2023/09/19 05:34:48;;;;;;;8.13;1.95;;;;;;;-146.27;66.61;81966.38;5040818;28;20037;-68
2023/09/19 05:37:16;;;;;;;6.38;1.35;;;;;;;-146.27;67.33;81958.34;5036142;28;20025;-68
2023/09/19 05:39:42;;;;;;;11.90;1.98;;;;;;;-146.27;68.52;82018.59;5046544;28;20055;-67
2023/09/19 05:42:08;;;;;;;8.93;1.73;;;;;;;-146.27;67.83;81968.38;5051993;28;20067;-69
2023/09/19 05:44:33;;;;;;;7.45;1.35;;;;;;;-146.27;68.61;81998.50;5034966;28;20029;-70
2023/09/19 05:46:58;;;;;;;6.13;1.77;;;;;;;-146.27;69.49;82082.88;5048241;28;20017;-70
2023/09/19 05:49:24;;;;;;;16.85;1.98;;;;;;;-146.27;69.27;82006.53;5041013;28;20105;-68
2023/09/19 05:51:53;;;;;;;11.10;2.50;;;;;;;-146.27;69.85;82018.59;5033979;28;20373;-68
2023/09/19 05:54:19;;;;;;;8.57;2.03;;;;;;;-146.27;69.41;81998.50;5047779;28;20372;-68
2023/09/19 05:56:46;;;;;;;11.07;1.70;;;;;;;-146.27;70.12;82076.84;5051781;28;20029;-68
2023/09/19 05:59:15;;;;;;;12.77;1.80;;;;;;;-146.27;70.81;82102.97;5042703;28;20572;-71
2023/09/19 06:01:42;;;;;;;13.02;1.52;;;;;;;-146.27;71.49;82086.91;5035078;28;20094;-69
2023/09/19 06:04:07;;;;;;;10.75;1.83;;;;;;;-146.27;71.35;82086.91;5035899;28;20025;-68
2023/09/19 06:06:38;;;;;;;16.30;2.47;;;;;;;-146.27;71.47;82058.78;5053130;28;20051;-70
2023/09/19 06:09:05;;;;;;;11.45;2.30;;;;;;;-146.27;70.57;81978.44;5054016;28;20025;-68
2023/09/19 06:11:34;;;;;;;14.27;2.13;;;;;;;-146.27;71.36;82074.84;5049283;28;20032;-68
2023/09/19 06:14:00;;;;;;;17.88;2.13;;;;;;;-146.27;71.69;82072.84;5048937;28;20041;-68
2023/09/19 06:16:25;;;;;;;11.20;1.58;;;;;;;-146.27;72.21;82102.97;5043381;28;20040;-68
2023/09/19 06:18:52;;;;;;;19.25;2.40;;;;;;;-146.27;71.94;82018.59;5052508;28;20025;-69
2023/09/19 06:21:18;;;;;;;13.50;1.73;;;;;;;-146.27;72.51;82042.69;5053476;28;20047;-69
2023/09/19 06:23:43;;;;;;;7.68;2.13;;;;;;;-146.27;73.67;82131.09;5053725;28;20033;-68
2023/09/19 06:26:09;;;;;;;20.40;2.42;;;;;;;-146.27;72.30;82070.81;5050398;28;20025;-68
2023/09/19 06:28:34;;;;;;;9.52;1.60;;;;;;;-146.27;72.81;82006.53;5051664;28;20083;-68
2023/09/19 06:31:02;;;;;;;13.50;2.40;;;;;;;-146.27;72.05;81968.38;5051743;28;20036;-69
2023/09/19 06:33:28;;;;;;;16.92;2.20;;;;;;;-146.27;73.24;82115.00;5053554;28;20037;-69
2023/09/19 06:35:59;;;;;;;11.20;2.03;;;;;;;-146.27;72.90;82036.69;5053158;28;20025;-68
2023/09/19 06:38:24;;;;;;;16.48;3.30;;;;;;;-146.27;73.62;82078.84;5035054;28;20116;-68
2023/09/19 06:40:50;;;;;;;12.82;1.65;;;;;;;-146.27;73.92;82127.06;5033172;28;20176;-69
2023/09/19 06:43:15;;;;;;;7.28;2.15;;;;;;;-146.27;74.81;82141.13;5033527;28;20140;-68
2023/09/19 06:45:40;;;;;;;12.13;1.73;;;;;;;-146.27;73.09;81982.44;5033472;28;20047;-68
2023/09/19 06:48:06;;;;;;;11.82;2.35;;;;;;;-146.27;73.10;82058.78;5047296;28;20021;-69
2023/09/19 06:50:34;;;;;;;12.10;2.38;;;;;;;-146.27;73.02;82030.66;5052513;28;20081;-69
2023/09/19 06:53:00;;;;;;;14.00;2.72;;;;;;;-146.27;73.45;82072.84;5052674;28;20550;-69
2023/09/19 06:55:30;;;;;;;15.15;2.05;;;;;;;-146.27;74.05;82104.97;5052834;28;20052;-68
2023/09/19 06:57:56;;;;;;;11.70;2.17;;;;;;;-146.27;73.58;82062.78;5047374;28;20116;-68
2023/09/19 07:00:23;;;;;;;18.80;2.45;;;;;;;-146.27;72.69;82028.66;5052327;28;20596;-68
2023/09/19 07:03:00;;;;;;;11.18;2.22;;;;;;;-146.27;72.46;82002.53;5052891;28;20032;-69
2023/09/19 07:05:27;;;;;;;10.68;1.98;;;;;;;-146.27;72.52;82054.75;5051844;28;20103;-68
2023/09/19 07:07:54;;;;;;;12.77;2.38;;;;;;;-146.27;71.83;82036.69;5049833;28;20465;-68
2023/09/19 07:10:20;;;;;;;10.23;2.25;;;;;;;-146.27;72.90;82068.81;5050679;28;20024;-68
2023/09/19 07:12:45;;;;;;;10.77;1.80;;;;;;;-146.27;72.74;82004.53;5052979;28;20590;-69
2023/09/19 07:15:10;;;;;;;12.48;2.05;;;;;;;-146.27;73.35;82050.75;5052435;28;20049;-69
2023/09/19 07:17:36;;;;;;;13.65;2.45;;;;;;;-146.27;73.26;82032.66;5051085;28;20431;-69
2023/09/19 07:20:07;;;;;;;12.27;2.40;;;;;;;-146.27;73.82;82022.63;5050515;28;20108;-69
2023/09/19 07:22:33;;;;;;;14.73;2.17;;;;;;;-146.27;74.12;82028.66;5052620;28;20037;-69
2023/09/19 07:24:58;;;;;;;19.52;2.30;;;;;;;-146.27;74.59;82066.81;5052454;28;20086;-69
2023/09/19 07:27:23;;;;;;;11.60;2.38;;;;;;;-146.27;75.66;82106.97;5050357;28;20078;-68
2023/09/19 07:29:49;;;;;;;9.60;2.30;;;;;;;-146.27;76.08;82106.97;5052476;28;20047;-69
2023/09/19 07:32:17;;;;;;;12.18;2.05;;;;;;;-146.27;74.88;82008.56;5052740;28;20025;-69
2023/09/19 07:34:44;;;;;;;19.95;2.92;;;;;;;-146.27;74.42;81978.44;5049303;28;20025;-69
2023/09/19 07:37:09;;;;;;;15.93;2.15;;;;;;;-146.27;74.19;81964.38;5044568;28;20033;-68
2023/09/19 07:39:35;;;;;;;20.88;2.75;;;;;;;-146.27;74.41;81998.50;5036771;28;20025;-68
2023/09/19 07:42:01;;;;;;;15.60;2.67;;;;;;;-146.27;74.09;81940.25;5049725;28;20384;-68
2023/09/19 07:44:26;;;;;;;13.77;2.60;;;;;;;-146.27;74.58;82066.81;5052110;28;20097;-68
2023/09/19 07:46:52;;;;;;;13.07;2.45;;;;;;;-146.27;74.83;82062.78;5044490;28;20029;-68
2023/09/19 07:49:17;;;;;;;13.32;2.22;;;;;;;-146.27;74.16;81962.34;5032123;28;20064;-68
2023/09/19 07:51:46;;;;;;;12.90;2.10;;;;;;;-146.27;73.58;81926.22;5042759;28;20056;-68
2023/09/19 07:54:12;;;;;;;17.40;2.80;;;;;;;-146.27;72.99;81878.00;5045404;28;20021;-68
2023/09/19 07:56:38;;;;;;;19.15;2.75;;;;;;;-146.27;73.18;81898.09;5051149;28;20048;-68
2023/09/19 07:59:03;;;;;;;18.77;2.13;;;;;;;-146.27;73.13;81954.31;5047536;28;20021;-68
2023/09/19 08:01:28;;;;;;;9.18;1.95;;;;;;;-146.27;74.14;82058.78;5055374;28;20035;-68
2023/09/19 08:03:54;;;;;;;15.07;2.65;;;;;;;-146.27;73.55;82008.56;5044162;28;20020;-68
2023/09/19 08:06:20;;;;;;;13.88;2.17;;;;;;;-146.27;72.38;81968.38;5051958;28;20078;-67
2023/09/19 08:08:45;;;;;;;11.38;2.65;;;;;;;-146.27;71.77;81849.88;5048126;28;20128;-68
2023/09/19 08:11:12;;;;;;;13.73;2.42;;;;;;;-146.27;72.16;81896.06;5034251;28;20104;-70
2023/09/19 08:13:43;;;;;;;23.77;2.75;;;;;;;-146.27;71.88;81851.88;5051959;28;20402;-69
2023/09/19 08:16:09;;;;;;;18.10;3.08;;;;;;;-146.27;71.66;81859.94;5050661;28;20637;-69
2023/09/19 08:18:34;;;;;;;12.15;3.08;;;;;;;-146.27;70.72;81817.75;5042246;28;20047;-69
2023/09/19 08:21:00;;;;;;;7.68;2.15;;;;;;;-146.27;70.85;81757.50;5032603;28;20060;-69
2023/09/19 08:23:26;;;;;;;12.25;2.30;;;;;;;-146.27;70.36;81815.72;5042162;28;20136;-68
2023/09/19 08:25:56;;;;;;;12.07;2.80;;;;;;;-146.27;69.62;81677.16;5038440;28;20100;-69
2023/09/19 08:28:24;;;;;;;16.50;3.45;;;;;;;-146.27;70.44;81769.53;5048637;28;20032;-69
2023/09/19 08:30:50;;;;;;;16.33;2.40;;;;;;;-146.27;71.31;81827.78;5045212;28;20036;-68
2023/09/19 08:33:16;;;;;;;15.50;2.80;;;;;;;-146.27;70.63;81805.69;5039408;28;20057;-69
2023/09/19 08:35:42;;;;;;;15.05;2.35;;;;;;;-146.27;70.80;81745.44;5033607;28;20122;-69
2023/09/19 08:38:10;;;;;;;21.17;2.50;;;;;;;-146.27;70.56;81797.66;5038797;28;20063;-69
2023/09/19 08:40:43;;;;;;;12.57;2.58;;;;;;;-146.27;70.45;81773.56;5036172;28;20397;-69
2023/09/19 08:43:09;;;;;;;12.73;3.28;;;;;;;-146.27;70.68;81831.81;5045200;28;20020;-69
2023/09/19 08:45:36;;;;;;;16.08;3.58;;;;;;;-146.27;69.96;81701.25;5027546;28;20079;-68
2023/09/19 08:48:17;;;;;;;9.02;2.33;;;;;;;-146.27;70.06;81771.53;5029210;28;21951;-68
2023/09/19 08:51:16;;;;;;;10.32;2.10;;;;;;;-146.27;70.18;81765.53;5028018;28;20061;-68
2023/09/19 08:53:46;;;;;;;14.57;2.30;;;;;;;-146.27;70.33;81803.69;5048266;28;20033;-68
2023/09/19 08:56:13;;;;;;;14.80;2.58;;;;;;;-146.27;70.62;81819.75;5041068;28;20043;-69
2023/09/19 08:58:48;;;;;;;13.52;2.05;;;;;;;-146.27;69.91;81831.81;5038443;28;20036;-69
2023/09/19 09:01:16;;;;;;;15.77;2.78;;;;;;;-146.27;69.98;81773.56;5050904;28;20556;-69
2023/09/19 09:03:46;;;;;;;11.00;2.15;;;;;;;-146.27;71.09;81857.91;5047760;28;20027;-68
2023/09/19 09:06:15;;;;;;;17.77;2.95;;;;;;;-146.27;69.58;81749.47;5050147;28;20024;-69
2023/09/19 09:08:41;;;;;;;16.67;2.30;;;;;;;-146.27;70.18;81749.47;5044882;28;20033;-68
2023/09/19 09:11:07;;;;;;;14.70;3.10;;;;;;;-146.27;71.55;81890.06;5038514;28;20071;-69
2023/09/19 09:13:35;;;;;;;15.85;2.40;;;;;;;-146.27;71.32;81801.69;5048742;28;20033;-67
2023/09/19 09:16:01;;;;;;;17.70;4.13;;;;;;;-146.27;70.46;81705.28;5047037;28;20044;-67
2023/09/19 09:18:29;;;;;;;14.20;2.55;;;;;;;-146.27;69.29;81667.09;5049949;28;20233;-68
2023/09/19 09:20:55;;;;;;;20.88;2.33;;;;;;;-146.27;68.95;81653.06;5036785;28;20040;-68
2023/09/19 09:23:21;;;;;;;14.45;2.30;;;;;;;-146.27;69.02;81620.91;5037815;28;20449;-69
2023/09/19 09:25:56;;;;;;;12.13;2.13;;;;;;;-146.27;69.65;81705.28;5043772;28;20159;-69
2023/09/19 09:28:28;;;;;;;17.02;2.50;;;;;;;-146.27;70.61;81777.56;5040877;28;20484;-69
2023/09/19 09:30:55;;;;;;;15.95;2.50;;;;;;;-146.27;69.64;81647.03;5048941;28;20070;-69
2023/09/19 09:33:21;;;;;;;13.30;2.53;;;;;;;-146.27;69.41;81588.78;5043022;28;20389;-68
2023/09/19 09:36:06;;;;;;;10.68;2.22;;;;;;;-146.27;69.71;81600.84;5044763;28;20028;-68
2023/09/19 09:38:48;;;;;;;12.48;1.88;;;;;;;-146.27;69.01;81528.53;5036037;28;20400;-68
2023/09/19 09:41:26;;;;;;;14.63;2.58;;;;;;;-146.27;69.05;81645.00;5038225;28;20037;-69
2023/09/19 09:43:53;;;;;;;13.15;2.60;;;;;;;-146.27;70.48;81705.28;5047796;28;20433;-69
2023/09/19 09:51:58;;;;;;;16.77;2.53;;;;;;;-146.27;70.12;81641.00;5048567;28;20047;-69
2023/09/19 09:54:33;;;;;;;10.20;2.15;;;;;;;-146.27;69.05;81570.69;5045259;28;20029;-68
2023/09/19 09:57:20;;;;;;;15.27;2.65;;;;;;;-146.27;68.17;81468.28;5056585;28;20145;-69
2023/09/19 10:00:15;;;;;;;14.05;2.13;;;;;;;-146.27;67.41;81339.75;5046575;28;20028;-69
2023/09/19 10:02:42;;;;;;;15.95;2.58;;;;;;;-146.27;67.39;81456.22;5040962;28;20052;-69
2023/09/19 10:08:00;;;;;;;7.60;1.52;;;;;;;-146.27;67.28;81460.25;5034464;28;20037;-69
2023/09/19 10:10:53;;;;;;;10.40;2.05;;;;;;;-146.27;66.42;81436.16;5047506;28;20125;-69
2023/09/19 10:13:23;;;;;;;7.90;1.85;;;;;;;-146.27;65.75;81452.22;5039945;28;20044;-69
2023/09/19 10:15:50;;;;;;;8.55;1.33;;;;;;;-146.27;66.23;81486.34;5033300;28;20421;-69
2023/09/19 10:18:21;;;;;;;10.00;1.40;;;;;;;-146.27;66.15;81426.09;5037091;28;20022;-68
2023/09/19 10:20:48;;;;;;;16.85;2.42;;;;;;;-146.27;66.64;81464.25;5048230;28;20099;-70
2023/09/19 10:23:22;;;;;;;7.65;2.03;;;;;;;-146.27;67.67;81548.59;5048654;28;20036;-68
2023/09/19 10:25:48;;;;;;;13.35;2.22;;;;;;;-146.27;68.91;81616.91;5033658;28;20022;-69
2023/09/19 10:28:16;;;;;;;13.23;2.08;;;;;;;-146.27;66.84;81444.19;5061791;28;20025;-69
2023/09/19 10:30:44;;;;;;;8.82;2.05;;;;;;;-146.27;66.50;81400.00;5029582;28;20079;-70
2023/09/19 10:33:12;;;;;;;7.80;1.98;;;;;;;-146.27;66.23;81406.03;5036072;28;20021;-67
2023/09/19 10:35:40;;;;;;;11.73;2.00;;;;;;;-146.27;67.09;81347.78;5044522;28;20140;-68
2023/09/19 10:38:06;;;;;;;11.85;2.05;;;;;;;-146.27;66.05;81281.50;5047517;28;20025;-67
2023/09/19 10:40:35;;;;;;;11.82;2.00;;;;;;;-146.27;66.78;81375.91;5051347;28;20029;-68
2023/09/19 10:43:05;;;;;;;9.55;1.73;;;;;;;-146.27;67.32;81395.97;5053102;28;20448;-67
2023/09/19 10:45:32;;;;;;;10.57;2.58;;;;;;;-146.27;67.77;81440.16;5050730;28;20040;-68
2023/09/19 10:47:59;;;;;;;21.88;3.65;;;;;;;-146.27;67.96;81381.91;5052996;28;20578;-69
2023/09/19 10:50:31;;;;;;;20.75;2.95;;;;;;;-146.27;67.80;81371.88;5051448;28;20477;-70
2023/09/19 10:53:04;;;;;;;6.50;1.50;;;;;;;-146.27;66.83;81498.41;5052890;28;20029;-68
2023/09/19 10:55:31;;;;;;;12.30;2.13;;;;;;;-146.27;66.68;81369.88;5049926;28;20032;-69
2023/09/19 10:58:13;;;;;;;7.68;1.60;;;;;;;-146.27;66.77;81420.06;5038079;28;20025;-69
2023/09/19 11:01:12;;;;;;;14.43;2.22;;;;;;;-146.27;66.85;81341.75;5032893;28;20022;-69
2023/09/19 11:03:43;;;;;;;11.10;1.92;;;;;;;-146.27;66.14;81325.69;5031428;28;20392;-68
2023/09/19 11:06:18;;;;;;;10.80;1.65;;;;;;;-146.27;66.72;81369.88;5047113;28;20112;-67
2023/09/19 11:08:56;;;;;;;6.47;1.42;;;;;;;-146.27;66.83;81408.03;5032829;28;20112;-67
2023/09/19 11:11:40;;;;;;;7.82;1.27;;;;;;;-146.27;67.16;81508.44;5032942;28;20091;-67
2023/09/19 11:14:15;;;;;;;8.85;1.77;;;;;;;-146.27;66.28;81311.63;5045900;28;20108;-67
2023/09/19 11:17:17;;;;;;;11.63;1.95;;;;;;;-146.27;65.89;81271.47;5042625;28;20554;-68
2023/09/19 11:22:51;;;;;;;8.63;1.70;;;;;;;-146.27;65.19;81323.69;5037487;28;20497;-69
2023/09/19 11:25:39;;;;;;;7.80;1.17;;;;;;;-146.27;66.56;81315.66;5051331;28;20028;-69
2023/09/19 11:30:33;;;;;;;8.27;1.70;;;;;;;-146.27;66.17;81387.94;5052508;28;20029;-69
2023/09/19 11:33:37;;;;;;;5.68;1.10;;;;;;;-146.27;66.68;81428.09;5050774;28;20051;-68